Site Report
Select Start Month: Select End Month:
Ocean Shores areas (Feb 26, 2012 - May 05, 2013)
Ocean Shores areas (WAGHOSAR) Ocean Shores, WA (USA) Lat,Long: 47.00425,-124.15720 Map Elevation: 5 feet 32 species 3 trips (2 non-trip sightings)
The town of Ocean Shores is situated on a sandy peninsula about eight miles long and two miles wide on the north side of the channel where Gray's Harbor opens into the Pacific Ocean. The west side of the peninsula is a long sandy beach. The town features a golf course and a series of long narrow freshwater lakes; most of the peninsula has been developed for single family residential housing in coniferous forest, shrub and dune grass habitat, depending on proximity to the beach.
Species Sightings Trips First Date Last Date Avg/Sighting Avg/Trip Max Ct
Canada Goose 1   1 05/04/2013 05/04/2013 12.0 4.0 12
Gadwall 1   1 05/04/2013 05/04/2013 6.0 2.0 6
American Wigeon 1   1 05/04/2013 05/04/2013 4.0 1.3 4
Northern Shoveler 1   1 05/04/2013 05/04/2013 4.0 1.3 4
Lesser Scaup 1   1 05/04/2013 05/04/2013 18.0 6.0 18
Ring-necked Pheasant 1   0 04/26/2013 04/26/2013 2.0 0.0 2
Bald Eagle 1   1 05/04/2013 05/04/2013 1.0 0.3 1
Semipalmated Plover 1   1 05/04/2013 05/04/2013 200.0 66.7 200
Greater Yellowlegs 1   1 05/04/2013 05/04/2013 1.0 0.3 1
Marbled Godwit 1   1 05/04/2013 05/04/2013 10.0 3.3 10
Sanderling 1   1 05/04/2013 05/04/2013 50.0 16.7 50
Western Sandpiper 2   2 05/04/2013 05/04/2013 909.0 606.0 1800
Dunlin 1   1 05/04/2013 05/04/2013 20.0 6.7 20
California Gull 1   1 05/04/2013 05/04/2013 2.0 0.7 2
Glaucous-winged Gull 3   3 05/04/2013 05/04/2013 4.7 4.7 6
Barred Owl 1   0 02/27/2012 02/27/2012 1.0 0.0 1
American Crow 2   2 05/04/2013 05/04/2013 2.0 1.3 2
Tree Swallow 1   1 05/04/2013 05/04/2013 1.0 0.3 1
Violet-green Swallow 2   2 05/04/2013 05/04/2013 5.0 3.3 8
Cliff Swallow 2   2 05/04/2013 05/04/2013 1.0 0.7 1
Bewick's Wren 1   1 05/04/2013 05/04/2013 1.0 0.3 1
European Starling 1   1 05/04/2013 05/04/2013 1.0 0.3 1
Orange-crowned Warbler 1   1 05/04/2013 05/04/2013 1.0 0.3 1
Song Sparrow 1   1 05/04/2013 05/04/2013 1.0 0.3 1
White-crowned Sparrow 2   2 05/04/2013 05/04/2013 2.0 1.3 3
Golden-crowned Sparrow 1   1 05/04/2013 05/04/2013 1.0 0.3 1
Dark-eyed Junco 1   1 05/04/2013 05/04/2013 1.0 0.3 1
Brown-headed Cowbird 1   1 05/04/2013 05/04/2013 2.0 0.7 2
House Finch 2   2 05/04/2013 05/04/2013 1.5 1.0 2
Red Crossbill 1   1 05/04/2013 05/04/2013 1.0 0.3 1
Pine Siskin 1   1 05/04/2013 05/04/2013 2.0 0.7 2
House Sparrow 1   1 05/04/2013 05/04/2013 1.0 0.3 1
Home